Aérodrome :
LOGIN :

S'inscrire | Disclaimer

   EN    FR    IT 

 










Légende :    VFR   VFR Marginal   IFR   IFR Intensif   IFR Très Intensif
Visi : 
Plafond : 
>= 8 km
>= 3000ft
5 à 8 km
1000 à 3000 ft
1500m à 5 km
500 à 1000 ft
800 à 1500m
200 à 500 ft
< 800m
< 200 ft
Symboles :   Orages  Brouillard  Fortes neiges  Fortes précipitations  Vent > 20 kt
SIGMETs :   Divers  Orages  Givrage  Turbulence  Onde Orograph.  Cendres Volcan.







- Altitude de l'aérodrome : 290 ft
- Code IATA : ACI
- Voir les cartes d'approche


EGJA - Alderney

DERNIER METAR :
  • 230650Z 21012KT 9999 SCT012 15/14 Q1012

METARs EXPIRÉS :
  • 230620Z 21013KT 9999 SCT012 15/13 Q1012
  • 230550Z 21012KT 9999 VCSH SCT012 15/13 Q1012

TAF AMD TAF EGJA
Valide du 23 à 06h jusqu'au 23 à 15h UTC


230638Z 2306/2315 20017KT 9999 FEW012 SCT017
TEMPO 2306/2312 BKN015
PROB30
TEMPO 2306/2310 8000 SHRA BKN010
BECMG 2312/2314 17022G32KT 7000 RA BKN014
TEMPO 2313/2315 3000 +RA BKN007
Pas de NOTAMs connus pour ce terrain.



MET'MAP, la Météo Aéronautique d'un coup d'oeil ! - Copyright ORBIFLY Décembre 2007 - Disclaimer

ORBIFLY MET'MAP TEAM :

Programmation & Développement : Alexandra Zaïnal
Conception & Développement : Baudouin d'Aumeries
Co-Programmation & Développement : Marc-Olivier Méhu
Soutien technique & logistique : Manuel Goepfert

Contact : metmap@orbifly.com




SOURCES & CREDITS :

   NOAA